sensor_id;sensor_type;location;lat;lon;timestamp;P1;durP1;ratioP1;P2;durP2;ratioP2
18125;SDS011;53956;52.442;13.284;2023-02-02T00:00:47;17.40;;;4.13;;
18125;SDS011;53956;52.442;13.284;2023-02-02T00:03:13;17.03;;;4.47;;
18125;SDS011;53956;52.442;13.284;2023-02-02T00:05:43;20.63;;;4.30;;
18125;SDS011;53956;52.442;13.284;2023-02-02T00:08:11;19.10;;;4.20;;
18125;SDS011;53956;52.442;13.284;2023-02-02T00:10:38;18.87;;;4.60;;
18125;SDS011;53956;52.442;13.284;2023-02-02T00:13:05;24.57;;;4.67;;
18125;SDS011;53956;52.442;13.284;2023-02-02T00:15:33;17.30;;;4.33;;
18125;SDS011;53956;52.442;13.284;2023-02-02T00:17:59;19.07;;;4.60;;
18125;SDS011;53956;52.442;13.284;2023-02-02T00:20:26;20.23;;;4.20;;
18125;SDS011;53956;52.442;13.284;2023-02-02T00:22:53;16.53;;;4.13;;
18125;SDS011;53956;52.442;13.284;2023-02-02T00:25:20;16.70;;;4.33;;
18125;SDS011;53956;52.442;13.284;2023-02-02T00:27:47;15.70;;;4.17;;
18125;SDS011;53956;52.442;13.284;2023-02-02T00:30:14;19.63;;;4.53;;
18125;SDS011;53956;52.442;13.284;2023-02-02T00:32:42;17.67;;;4.23;;
18125;SDS011;53956;52.442;13.284;2023-02-02T00:35:12;16.63;;;3.87;;
18125;SDS011;53956;52.442;13.284;2023-02-02T00:37:39;17.93;;;4.13;;
18125;SDS011;53956;52.442;13.284;2023-02-02T00:40:07;16.53;;;4.60;;
18125;SDS011;53956;52.442;13.284;2023-02-02T00:42:35;15.43;;;4.40;;
18125;SDS011;53956;52.442;13.284;2023-02-02T00:45:02;16.73;;;3.80;;
18125;SDS011;53956;52.442;13.284;2023-02-02T00:47:43;15.73;;;4.00;;
18125;SDS011;53956;52.442;13.284;2023-02-02T00:50:12;17.37;;;4.67;;
18125;SDS011;53956;52.442;13.284;2023-02-02T00:52:41;15.80;;;4.37;;
18125;SDS011;53956;52.442;13.284;2023-02-02T00:55:08;20.37;;;4.47;;
18125;SDS011;53956;52.442;13.284;2023-02-02T00:57:36;18.50;;;4.33;;
18125;SDS011;53956;52.442;13.284;2023-02-02T01:00:04;19.63;;;4.47;;
18125;SDS011;53956;52.442;13.284;2023-02-02T01:02:33;23.33;;;4.20;;
18125;SDS011;53956;52.442;13.284;2023-02-02T01:05:02;17.90;;;4.60;;
18125;SDS011;53956;52.442;13.284;2023-02-02T01:07:29;19.03;;;3.87;;
18125;SDS011;53956;52.442;13.284;2023-02-02T01:09:56;22.57;;;4.27;;
18125;SDS011;53956;52.442;13.284;2023-02-02T01:12:22;23.30;;;4.30;;
18125;SDS011;53956;52.442;13.284;2023-02-02T01:14:49;17.97;;;4.27;;
18125;SDS011;53956;52.442;13.284;2023-02-02T01:17:16;21.23;;;4.57;;
18125;SDS011;53956;52.442;13.284;2023-02-02T01:19:43;18.87;;;4.03;;
18125;SDS011;53956;52.442;13.284;2023-02-02T01:22:11;20.47;;;4.30;;
18125;SDS011;53956;52.442;13.284;2023-02-02T01:24:38;17.27;;;4.00;;
18125;SDS011;53956;52.442;13.284;2023-02-02T01:27:05;20.03;;;4.83;;
18125;SDS011;53956;52.442;13.284;2023-02-02T01:29:32;12.23;;;3.77;;
18125;SDS011;53956;52.442;13.284;2023-02-02T01:31:58;14.17;;;4.27;;
18125;SDS011;53956;52.442;13.284;2023-02-02T01:34:25;20.00;;;4.13;;
18125;SDS011;53956;52.442;13.284;2023-02-02T01:36:52;21.43;;;4.33;;
18125;SDS011;53956;52.442;13.284;2023-02-02T01:39:20;21.10;;;4.17;;
18125;SDS011;53956;52.442;13.284;2023-02-02T01:41:47;21.57;;;4.70;;
18125;SDS011;53956;52.442;13.284;2023-02-02T01:47:18;16.50;;;4.23;;
18125;SDS011;53956;52.442;13.284;2023-02-02T01:49:46;18.47;;;4.00;;
18125;SDS011;53956;52.442;13.284;2023-02-02T01:52:13;17.40;;;4.10;;
18125;SDS011;53956;52.442;13.284;2023-02-02T01:54:45;15.93;;;4.10;;
18125;SDS011;53956;52.442;13.284;2023-02-02T01:57:19;15.50;;;4.30;;
18125;SDS011;53956;52.442;13.284;2023-02-02T01:59:53;18.37;;;4.47;;
18125;SDS011;53956;52.442;13.284;2023-02-02T02:02:22;20.23;;;4.20;;
18125;SDS011;53956;52.442;13.284;2023-02-02T02:04:50;19.00;;;4.23;;
18125;SDS011;53956;52.442;13.284;2023-02-02T02:07:17;17.83;;;4.37;;
18125;SDS011;53956;52.442;13.284;2023-02-02T02:09:46;22.03;;;4.80;;
18125;SDS011;53956;52.442;13.284;2023-02-02T02:12:14;18.63;;;4.10;;
18125;SDS011;53956;52.442;13.284;2023-02-02T02:14:41;21.70;;;4.33;;
18125;SDS011;53956;52.442;13.284;2023-02-02T02:17:37;18.23;;;4.17;;
18125;SDS011;53956;52.442;13.284;2023-02-02T02:20:21;18.67;;;4.73;;
18125;SDS011;53956;52.442;13.284;2023-02-02T02:23:31;21.00;;;4.07;;
18125;SDS011;53956;52.442;13.284;2023-02-02T02:26:42;17.33;;;3.67;;
18125;SDS011;53956;52.442;13.284;2023-02-02T02:29:26;22.27;;;4.10;;
18125;SDS011;53956;52.442;13.284;2023-02-02T02:32:23;19.97;;;4.60;;
18125;SDS011;53956;52.442;13.284;2023-02-02T02:34:59;22.57;;;4.20;;
18125;SDS011;53956;52.442;13.284;2023-02-02T02:37:31;18.47;;;4.40;;
18125;SDS011;53956;52.442;13.284;2023-02-02T02:40:05;23.60;;;4.50;;
18125;SDS011;53956;52.442;13.284;2023-02-02T02:42:40;17.73;;;4.67;;
18125;SDS011;53956;52.442;13.284;2023-02-02T02:45:12;19.50;;;3.60;;
18125;SDS011;53956;52.442;13.284;2023-02-02T02:47:41;15.00;;;3.73;;
18125;SDS011;53956;52.442;13.284;2023-02-02T02:50:09;18.83;;;3.63;;
18125;SDS011;53956;52.442;13.284;2023-02-02T02:52:36;15.77;;;3.73;;
18125;SDS011;53956;52.442;13.284;2023-02-02T02:55:05;13.30;;;3.93;;
18125;SDS011;53956;52.442;13.284;2023-02-02T02:57:41;13.20;;;3.40;;
18125;SDS011;53956;52.442;13.284;2023-02-02T03:00:22;14.97;;;3.83;;
18125;SDS011;53956;52.442;13.284;2023-02-02T03:03:04;16.13;;;3.97;;
18125;SDS011;53956;52.442;13.284;2023-02-02T03:05:38;18.17;;;4.17;;
18125;SDS011;53956;52.442;13.284;2023-02-02T03:08:15;17.90;;;4.20;;
18125;SDS011;53956;52.442;13.284;2023-02-02T03:10:48;14.83;;;3.60;;
18125;SDS011;53956;52.442;13.284;2023-02-02T03:13:17;15.60;;;3.83;;
18125;SDS011;53956;52.442;13.284;2023-02-02T03:15:44;10.60;;;3.20;;
18125;SDS011;53956;52.442;13.284;2023-02-02T03:18:13;16.87;;;4.00;;
18125;SDS011;53956;52.442;13.284;2023-02-02T03:20:42;12.90;;;3.63;;
18125;SDS011;53956;52.442;13.284;2023-02-02T03:23:10;11.90;;;3.57;;
18125;SDS011;53956;52.442;13.284;2023-02-02T03:25:36;10.90;;;3.30;;
18125;SDS011;53956;52.442;13.284;2023-02-02T03:28:03;13.17;;;3.77;;
18125;SDS011;53956;52.442;13.284;2023-02-02T03:30:31;15.43;;;3.80;;
18125;SDS011;53956;52.442;13.284;2023-02-02T03:32:58;13.10;;;3.80;;
18125;SDS011;53956;52.442;13.284;2023-02-02T03:35:27;12.53;;;3.70;;
18125;SDS011;53956;52.442;13.284;2023-02-02T03:37:53;8.40;;;3.17;;
18125;SDS011;53956;52.442;13.284;2023-02-02T03:40:20;17.10;;;3.83;;
18125;SDS011;53956;52.442;13.284;2023-02-02T03:42:47;19.53;;;3.80;;
18125;SDS011;53956;52.442;13.284;2023-02-02T03:45:14;15.03;;;3.53;;
18125;SDS011;53956;52.442;13.284;2023-02-02T03:47:41;16.30;;;3.33;;
18125;SDS011;53956;52.442;13.284;2023-02-02T03:50:08;9.87;;;3.40;;
18125;SDS011;53956;52.442;13.284;2023-02-02T03:52:37;7.70;;;2.87;;
18125;SDS011;53956;52.442;13.284;2023-02-02T03:55:04;10.17;;;3.27;;
18125;SDS011;53956;52.442;13.284;2023-02-02T03:57:31;9.97;;;3.17;;
18125;SDS011;53956;52.442;13.284;2023-02-02T03:59:58;9.20;;;3.20;;
18125;SDS011;53956;52.442;13.284;2023-02-02T04:02:25;9.73;;;3.13;;
18125;SDS011;53956;52.442;13.284;2023-02-02T04:04:51;9.80;;;3.00;;
18125;SDS011;53956;52.442;13.284;2023-02-02T04:07:18;13.70;;;3.33;;
18125;SDS011;53956;52.442;13.284;2023-02-02T04:09:46;12.60;;;3.40;;
18125;SDS011;53956;52.442;13.284;2023-02-02T04:12:13;7.73;;;2.83;;
18125;SDS011;53956;52.442;13.284;2023-02-02T04:14:39;9.53;;;2.90;;
18125;SDS011;53956;52.442;13.284;2023-02-02T04:17:06;13.50;;;3.70;;
18125;SDS011;53956;52.442;13.284;2023-02-02T04:19:33;10.20;;;2.80;;
18125;SDS011;53956;52.442;13.284;2023-02-02T04:21:59;9.10;;;2.93;;
18125;SDS011;53956;52.442;13.284;2023-02-02T04:24:26;10.50;;;3.30;;
18125;SDS011;53956;52.442;13.284;2023-02-02T04:26:54;9.33;;;3.30;;
18125;SDS011;53956;52.442;13.284;2023-02-02T04:29:21;9.07;;;2.90;;
18125;SDS011;53956;52.442;13.284;2023-02-02T04:31:47;11.37;;;3.10;;
18125;SDS011;53956;52.442;13.284;2023-02-02T04:34:14;12.57;;;3.30;;
18125;SDS011;53956;52.442;13.284;2023-02-02T04:36:41;7.83;;;2.83;;
18125;SDS011;53956;52.442;13.284;2023-02-02T04:39:08;7.13;;;3.00;;
18125;SDS011;53956;52.442;13.284;2023-02-02T04:41:36;12.87;;;3.43;;
18125;SDS011;53956;52.442;13.284;2023-02-02T04:44:04;12.27;;;3.20;;
18125;SDS011;53956;52.442;13.284;2023-02-02T04:46:38;10.90;;;3.00;;
18125;SDS011;53956;52.442;13.284;2023-02-02T04:49:04;11.33;;;3.40;;
18125;SDS011;53956;52.442;13.284;2023-02-02T04:51:32;16.03;;;3.77;;
18125;SDS011;53956;52.442;13.284;2023-02-02T04:54:00;14.03;;;3.80;;
18125;SDS011;53956;52.442;13.284;2023-02-02T04:56:26;8.83;;;3.07;;
18125;SDS011;53956;52.442;13.284;2023-02-02T04:58:53;7.03;;;3.00;;
18125;SDS011;53956;52.442;13.284;2023-02-02T05:01:22;9.40;;;2.90;;
18125;SDS011;53956;52.442;13.284;2023-02-02T05:03:49;9.70;;;3.20;;
18125;SDS011;53956;52.442;13.284;2023-02-02T05:06:16;10.40;;;3.10;;
18125;SDS011;53956;52.442;13.284;2023-02-02T05:08:43;9.27;;;2.80;;
18125;SDS011;53956;52.442;13.284;2023-02-02T05:11:10;6.67;;;2.80;;
18125;SDS011;53956;52.442;13.284;2023-02-02T05:13:39;11.27;;;3.13;;
18125;SDS011;53956;52.442;13.284;2023-02-02T05:16:09;13.00;;;3.07;;
18125;SDS011;53956;52.442;13.284;2023-02-02T05:18:37;9.03;;;3.20;;
18125;SDS011;53956;52.442;13.284;2023-02-02T05:21:04;11.90;;;3.00;;
18125;SDS011;53956;52.442;13.284;2023-02-02T05:23:31;11.73;;;3.23;;
18125;SDS011;53956;52.442;13.284;2023-02-02T05:25:57;12.20;;;3.73;;
18125;SDS011;53956;52.442;13.284;2023-02-02T05:28:24;15.73;;;3.77;;
18125;SDS011;53956;52.442;13.284;2023-02-02T05:30:51;13.20;;;2.93;;
18125;SDS011;53956;52.442;13.284;2023-02-02T05:33:18;11.27;;;2.93;;
18125;SDS011;53956;52.442;13.284;2023-02-02T05:35:46;14.67;;;3.40;;
18125;SDS011;53956;52.442;13.284;2023-02-02T05:38:13;14.50;;;3.17;;
18125;SDS011;53956;52.442;13.284;2023-02-02T05:40:41;11.20;;;3.33;;
18125;SDS011;53956;52.442;13.284;2023-02-02T05:43:08;9.07;;;3.07;;
18125;SDS011;53956;52.442;13.284;2023-02-02T05:45:34;12.10;;;3.20;;
18125;SDS011;53956;52.442;13.284;2023-02-02T05:48:01;10.47;;;3.30;;
18125;SDS011;53956;52.442;13.284;2023-02-02T05:50:28;13.00;;;3.30;;
18125;SDS011;53956;52.442;13.284;2023-02-02T05:53:03;13.87;;;3.47;;
18125;SDS011;53956;52.442;13.284;2023-02-02T05:55:30;13.77;;;2.90;;
18125;SDS011;53956;52.442;13.284;2023-02-02T05:57:57;13.40;;;3.50;;
18125;SDS011;53956;52.442;13.284;2023-02-02T06:00:24;10.00;;;3.00;;
18125;SDS011;53956;52.442;13.284;2023-02-02T06:02:50;13.17;;;3.50;;
18125;SDS011;53956;52.442;13.284;2023-02-02T06:05:17;13.77;;;3.37;;
18125;SDS011;53956;52.442;13.284;2023-02-02T06:07:44;14.50;;;3.60;;
18125;SDS011;53956;52.442;13.284;2023-02-02T06:10:12;9.63;;;3.40;;
18125;SDS011;53956;52.442;13.284;2023-02-02T06:12:38;10.50;;;2.90;;
18125;SDS011;53956;52.442;13.284;2023-02-02T06:15:05;10.70;;;3.20;;
18125;SDS011;53956;52.442;13.284;2023-02-02T06:17:33;11.33;;;3.43;;
18125;SDS011;53956;52.442;13.284;2023-02-02T06:19:59;9.97;;;2.80;;
18125;SDS011;53956;52.442;13.284;2023-02-02T06:22:26;11.73;;;3.17;;
18125;SDS011;53956;52.442;13.284;2023-02-02T06:24:54;10.60;;;3.33;;
18125;SDS011;53956;52.442;13.284;2023-02-02T06:27:22;10.43;;;3.33;;
18125;SDS011;53956;52.442;13.284;2023-02-02T06:29:49;14.60;;;3.30;;
18125;SDS011;53956;52.442;13.284;2023-02-02T06:32:16;8.57;;;3.10;;
18125;SDS011;53956;52.442;13.284;2023-02-02T06:34:42;8.57;;;2.83;;
18125;SDS011;53956;52.442;13.284;2023-02-02T06:37:09;10.73;;;3.50;;
18125;SDS011;53956;52.442;13.284;2023-02-02T06:39:35;14.80;;;3.30;;
18125;SDS011;53956;52.442;13.284;2023-02-02T06:42:02;10.87;;;3.13;;
18125;SDS011;53956;52.442;13.284;2023-02-02T06:44:30;13.53;;;2.97;;
18125;SDS011;53956;52.442;13.284;2023-02-02T06:46:57;11.30;;;2.93;;
18125;SDS011;53956;52.442;13.284;2023-02-02T06:49:24;13.00;;;3.07;;
18125;SDS011;53956;52.442;13.284;2023-02-02T06:51:50;9.40;;;2.93;;
18125;SDS011;53956;52.442;13.284;2023-02-02T06:54:17;11.17;;;3.17;;
18125;SDS011;53956;52.442;13.284;2023-02-02T06:56:43;11.27;;;3.30;;
18125;SDS011;53956;52.442;13.284;2023-02-02T06:59:10;10.50;;;3.47;;
18125;SDS011;53956;52.442;13.284;2023-02-02T07:01:38;10.53;;;3.27;;
18125;SDS011;53956;52.442;13.284;2023-02-02T07:04:05;9.47;;;3.13;;
18125;SDS011;53956;52.442;13.284;2023-02-02T07:06:31;12.40;;;3.50;;
18125;SDS011;53956;52.442;13.284;2023-02-02T07:08:58;11.50;;;3.40;;
18125;SDS011;53956;52.442;13.284;2023-02-02T07:11:26;13.33;;;3.43;;
18125;SDS011;53956;52.442;13.284;2023-02-02T07:13:52;15.07;;;3.40;;
18125;SDS011;53956;52.442;13.284;2023-02-02T07:16:19;11.33;;;2.87;;
18125;SDS011;53956;52.442;13.284;2023-02-02T07:18:47;11.03;;;3.30;;
18125;SDS011;53956;52.442;13.284;2023-02-02T07:21:15;17.83;;;3.70;;
18125;SDS011;53956;52.442;13.284;2023-02-02T07:23:43;13.60;;;3.53;;
18125;SDS011;53956;52.442;13.284;2023-02-02T07:26:11;15.17;;;3.50;;
18125;SDS011;53956;52.442;13.284;2023-02-02T07:28:42;13.80;;;3.60;;
18125;SDS011;53956;52.442;13.284;2023-02-02T07:31:13;12.67;;;3.37;;
18125;SDS011;53956;52.442;13.284;2023-02-02T07:33:40;14.23;;;3.27;;
18125;SDS011;53956;52.442;13.284;2023-02-02T07:36:09;13.43;;;3.23;;
18125;SDS011;53956;52.442;13.284;2023-02-02T07:38:36;12.77;;;3.90;;
18125;SDS011;53956;52.442;13.284;2023-02-02T07:41:03;17.33;;;3.67;;
18125;SDS011;53956;52.442;13.284;2023-02-02T07:43:29;15.57;;;3.57;;
18125;SDS011;53956;52.442;13.284;2023-02-02T07:45:58;15.43;;;3.90;;
18125;SDS011;53956;52.442;13.284;2023-02-02T07:48:26;13.17;;;3.50;;
18125;SDS011;53956;52.442;13.284;2023-02-02T07:50:56;12.37;;;3.30;;
18125;SDS011;53956;52.442;13.284;2023-02-02T07:53:25;12.10;;;3.60;;
18125;SDS011;53956;52.442;13.284;2023-02-02T07:55:52;14.60;;;3.73;;
18125;SDS011;53956;52.442;13.284;2023-02-02T07:58:18;13.70;;;3.37;;
18125;SDS011;53956;52.442;13.284;2023-02-02T08:00:45;15.73;;;3.17;;
18125;SDS011;53956;52.442;13.284;2023-02-02T08:03:12;12.13;;;3.47;;
18125;SDS011;53956;52.442;13.284;2023-02-02T08:05:39;13.83;;;3.67;;
18125;SDS011;53956;52.442;13.284;2023-02-02T08:08:05;21.50;;;4.50;;
18125;SDS011;53956;52.442;13.284;2023-02-02T08:10:33;16.00;;;4.10;;
18125;SDS011;53956;52.442;13.284;2023-02-02T08:13:00;20.97;;;3.60;;
18125;SDS011;53956;52.442;13.284;2023-02-02T08:15:27;13.27;;;3.67;;
18125;SDS011;53956;52.442;13.284;2023-02-02T08:17:53;10.10;;;2.97;;
18125;SDS011;53956;52.442;13.284;2023-02-02T08:20:20;15.77;;;4.13;;
18125;SDS011;53956;52.442;13.284;2023-02-02T08:22:47;15.63;;;4.03;;
18125;SDS011;53956;52.442;13.284;2023-02-02T08:25:13;13.50;;;3.77;;
18125;SDS011;53956;52.442;13.284;2023-02-02T08:27:41;17.00;;;3.80;;
18125;SDS011;53956;52.442;13.284;2023-02-02T08:30:09;13.93;;;3.43;;
18125;SDS011;53956;52.442;13.284;2023-02-02T08:32:36;13.73;;;3.50;;
18125;SDS011;53956;52.442;13.284;2023-02-02T08:35:04;12.30;;;3.47;;
18125;SDS011;53956;52.442;13.284;2023-02-02T08:37:31;13.37;;;3.23;;
18125;SDS011;53956;52.442;13.284;2023-02-02T08:39:58;11.40;;;3.30;;
18125;SDS011;53956;52.442;13.284;2023-02-02T08:42:24;13.93;;;3.37;;
18125;SDS011;53956;52.442;13.284;2023-02-02T08:44:52;11.03;;;3.00;;
18125;SDS011;53956;52.442;13.284;2023-02-02T08:47:19;16.63;;;3.23;;
18125;SDS011;53956;52.442;13.284;2023-02-02T08:49:46;8.57;;;2.83;;
18125;SDS011;53956;52.442;13.284;2023-02-02T08:52:12;15.07;;;2.93;;
18125;SDS011;53956;52.442;13.284;2023-02-02T08:54:39;12.30;;;3.10;;
18125;SDS011;53956;52.442;13.284;2023-02-02T08:57:06;11.83;;;3.37;;
18125;SDS011;53956;52.442;13.284;2023-02-02T08:59:32;12.97;;;2.80;;
18125;SDS011;53956;52.442;13.284;2023-02-02T09:02:00;12.47;;;3.27;;
18125;SDS011;53956;52.442;13.284;2023-02-02T09:04:27;12.00;;;3.27;;
18125;SDS011;53956;52.442;13.284;2023-02-02T09:06:54;10.00;;;3.13;;
18125;SDS011;53956;52.442;13.284;2023-02-02T09:09:21;12.60;;;3.10;;
18125;SDS011;53956;52.442;13.284;2023-02-02T09:11:47;11.97;;;3.03;;
18125;SDS011;53956;52.442;13.284;2023-02-02T09:14:14;11.73;;;2.90;;
18125;SDS011;53956;52.442;13.284;2023-02-02T09:16:41;12.90;;;2.80;;
18125;SDS011;53956;52.442;13.284;2023-02-02T09:19:09;11.47;;;2.43;;
18125;SDS011;53956;52.442;13.284;2023-02-02T09:21:37;9.77;;;2.73;;
18125;SDS011;53956;52.442;13.284;2023-02-02T09:24:05;8.93;;;2.53;;
18125;SDS011;53956;52.442;13.284;2023-02-02T09:26:34;10.73;;;2.67;;
18125;SDS011;53956;52.442;13.284;2023-02-02T09:29:03;10.47;;;3.10;;
18125;SDS011;53956;52.442;13.284;2023-02-02T09:31:32;10.53;;;2.80;;
18125;SDS011;53956;52.442;13.284;2023-02-02T09:34:00;9.50;;;2.80;;
18125;SDS011;53956;52.442;13.284;2023-02-02T09:36:29;11.23;;;2.77;;
18125;SDS011;53956;52.442;13.284;2023-02-02T09:38:56;13.03;;;3.20;;
18125;SDS011;53956;52.442;13.284;2023-02-02T09:44:28;12.07;;;3.00;;
18125;SDS011;53956;52.442;13.284;2023-02-02T09:47:04;9.90;;;3.10;;
18125;SDS011;53956;52.442;13.284;2023-02-02T09:49:38;8.00;;;2.70;;
18125;SDS011;53956;52.442;13.284;2023-02-02T09:52:20;15.93;;;3.10;;
18125;SDS011;53956;52.442;13.284;2023-02-02T09:54:51;9.60;;;2.87;;
18125;SDS011;53956;52.442;13.284;2023-02-02T09:57:24;8.80;;;2.67;;
18125;SDS011;53956;52.442;13.284;2023-02-02T09:59:54;17.77;;;3.27;;
18125;SDS011;53956;52.442;13.284;2023-02-02T10:02:22;9.33;;;2.80;;
18125;SDS011;53956;52.442;13.284;2023-02-02T10:04:53;11.83;;;3.40;;
18125;SDS011;53956;52.442;13.284;2023-02-02T10:07:29;10.67;;;2.77;;
18125;SDS011;53956;52.442;13.284;2023-02-02T10:10:02;8.70;;;2.57;;
18125;SDS011;53956;52.442;13.284;2023-02-02T10:12:37;14.77;;;3.97;;
18125;SDS011;53956;52.442;13.284;2023-02-02T10:15:13;13.37;;;2.97;;
18125;SDS011;53956;52.442;13.284;2023-02-02T10:17:43;9.47;;;2.80;;
18125;SDS011;53956;52.442;13.284;2023-02-02T10:20:25;13.33;;;2.73;;
18125;SDS011;53956;52.442;13.284;2023-02-02T10:23:02;11.00;;;3.17;;
18125;SDS011;53956;52.442;13.284;2023-02-02T10:25:38;9.80;;;2.70;;
18125;SDS011;53956;52.442;13.284;2023-02-02T10:28:16;15.37;;;3.10;;
18125;SDS011;53956;52.442;13.284;2023-02-02T10:30:44;10.37;;;2.70;;
18125;SDS011;53956;52.442;13.284;2023-02-02T10:33:18;12.23;;;3.00;;
18125;SDS011;53956;52.442;13.284;2023-02-02T10:35:52;12.20;;;2.70;;
18125;SDS011;53956;52.442;13.284;2023-02-02T10:38:25;13.03;;;3.07;;
18125;SDS011;53956;52.442;13.284;2023-02-02T10:41:05;15.80;;;4.37;;
18125;SDS011;53956;52.442;13.284;2023-02-02T10:43:51;9.17;;;2.60;;
18125;SDS011;53956;52.442;13.284;2023-02-02T10:46:35;9.00;;;2.80;;
18125;SDS011;53956;52.442;13.284;2023-02-02T10:49:10;9.60;;;2.80;;
18125;SDS011;53956;52.442;13.284;2023-02-02T10:51:44;11.83;;;3.10;;
18125;SDS011;53956;52.442;13.284;2023-02-02T10:54:19;6.93;;;2.40;;
18125;SDS011;53956;52.442;13.284;2023-02-02T10:56:54;11.13;;;3.43;;
18125;SDS011;53956;52.442;13.284;2023-02-02T10:59:26;11.77;;;2.97;;
18125;SDS011;53956;52.442;13.284;2023-02-02T11:01:57;8.33;;;2.57;;
18125;SDS011;53956;52.442;13.284;2023-02-02T11:04:24;5.10;;;2.27;;
18125;SDS011;53956;52.442;13.284;2023-02-02T11:07:09;10.23;;;2.80;;
18125;SDS011;53956;52.442;13.284;2023-02-02T11:09:45;9.87;;;2.80;;
18125;SDS011;53956;52.442;13.284;2023-02-02T11:12:14;8.30;;;2.30;;
18125;SDS011;53956;52.442;13.284;2023-02-02T11:14:46;8.00;;;2.43;;
18125;SDS011;53956;52.442;13.284;2023-02-02T11:17:18;7.43;;;2.50;;
18125;SDS011;53956;52.442;13.284;2023-02-02T11:19:46;7.40;;;2.33;;
18125;SDS011;53956;52.442;13.284;2023-02-02T11:22:22;7.33;;;2.67;;
18125;SDS011;53956;52.442;13.284;2023-02-02T11:25:00;6.90;;;2.40;;
18125;SDS011;53956;52.442;13.284;2023-02-02T11:27:30;7.03;;;2.43;;
18125;SDS011;53956;52.442;13.284;2023-02-02T11:30:00;5.67;;;2.60;;
18125;SDS011;53956;52.442;13.284;2023-02-02T11:32:37;8.40;;;2.77;;
18125;SDS011;53956;52.442;13.284;2023-02-02T11:35:14;9.27;;;2.63;;
18125;SDS011;53956;52.442;13.284;2023-02-02T11:37:53;7.43;;;2.20;;
18125;SDS011;53956;52.442;13.284;2023-02-02T11:40:30;7.67;;;2.53;;
18125;SDS011;53956;52.442;13.284;2023-02-02T11:43:01;6.87;;;2.63;;
18125;SDS011;53956;52.442;13.284;2023-02-02T11:45:32;10.23;;;2.87;;
18125;SDS011;53956;52.442;13.284;2023-02-02T11:48:04;7.47;;;2.60;;
18125;SDS011;53956;52.442;13.284;2023-02-02T11:50:40;9.97;;;2.90;;
18125;SDS011;53956;52.442;13.284;2023-02-02T11:53:18;7.13;;;2.40;;
18125;SDS011;53956;52.442;13.284;2023-02-02T11:55:49;7.90;;;2.60;;
18125;SDS011;53956;52.442;13.284;2023-02-02T11:58:20;7.43;;;2.40;;
18125;SDS011;53956;52.442;13.284;2023-02-02T12:00:52;6.03;;;2.07;;
18125;SDS011;53956;52.442;13.284;2023-02-02T12:03:31;8.63;;;2.63;;
18125;SDS011;53956;52.442;13.284;2023-02-02T12:06:00;9.53;;;2.80;;
18125;SDS011;53956;52.442;13.284;2023-02-02T12:08:43;7.80;;;2.30;;
18125;SDS011;53956;52.442;13.284;2023-02-02T12:11:13;6.03;;;2.53;;
18125;SDS011;53956;52.442;13.284;2023-02-02T12:13:57;8.53;;;2.60;;
18125;SDS011;53956;52.442;13.284;2023-02-02T12:16:38;9.87;;;2.77;;
18125;SDS011;53956;52.442;13.284;2023-02-02T12:22:23;9.27;;;2.53;;
18125;SDS011;53956;52.442;13.284;2023-02-02T12:25:02;7.30;;;2.50;;
18125;SDS011;53956;52.442;13.284;2023-02-02T12:27:49;7.30;;;2.13;;
18125;SDS011;53956;52.442;13.284;2023-02-02T12:30:26;6.93;;;2.10;;
18125;SDS011;53956;52.442;13.284;2023-02-02T12:33:03;7.93;;;2.33;;
18125;SDS011;53956;52.442;13.284;2023-02-02T12:35:47;6.67;;;2.40;;
18125;SDS011;53956;52.442;13.284;2023-02-02T12:38:23;8.20;;;3.00;;
18125;SDS011;53956;52.442;13.284;2023-02-02T12:41:04;5.70;;;2.40;;
18125;SDS011;53956;52.442;13.284;2023-02-02T12:43:44;6.17;;;2.23;;
18125;SDS011;53956;52.442;13.284;2023-02-02T12:46:17;4.50;;;2.20;;
18125;SDS011;53956;52.442;13.284;2023-02-02T12:48:56;5.73;;;2.30;;
18125;SDS011;53956;52.442;13.284;2023-02-02T12:51:48;3.87;;;2.20;;
18125;SDS011;53956;52.442;13.284;2023-02-02T12:54:38;5.63;;;2.17;;
18125;SDS011;53956;52.442;13.284;2023-02-02T12:57:14;7.73;;;2.27;;
18125;SDS011;53956;52.442;13.284;2023-02-02T12:59:56;6.27;;;2.33;;
18125;SDS011;53956;52.442;13.284;2023-02-02T13:02:34;5.77;;;2.50;;
18125;SDS011;53956;52.442;13.284;2023-02-02T13:05:15;8.50;;;2.70;;
18125;SDS011;53956;52.442;13.284;2023-02-02T13:07:59;7.13;;;2.67;;
18125;SDS011;53956;52.442;13.284;2023-02-02T13:10:29;8.23;;;2.77;;
18125;SDS011;53956;52.442;13.284;2023-02-02T13:13:01;4.47;;;2.20;;
18125;SDS011;53956;52.442;13.284;2023-02-02T13:15:34;6.60;;;2.20;;
18125;SDS011;53956;52.442;13.284;2023-02-02T13:18:05;8.00;;;2.47;;
18125;SDS011;53956;52.442;13.284;2023-02-02T13:20:36;6.80;;;2.57;;
18125;SDS011;53956;52.442;13.284;2023-02-02T13:23:07;5.70;;;2.20;;
18125;SDS011;53956;52.442;13.284;2023-02-02T13:25:40;5.70;;;2.40;;
18125;SDS011;53956;52.442;13.284;2023-02-02T13:28:14;7.67;;;2.93;;
18125;SDS011;53956;52.442;13.284;2023-02-02T13:30:51;8.13;;;2.60;;
18125;SDS011;53956;52.442;13.284;2023-02-02T13:33:22;5.63;;;2.40;;
18125;SDS011;53956;52.442;13.284;2023-02-02T13:35:53;5.77;;;2.20;;
18125;SDS011;53956;52.442;13.284;2023-02-02T13:38:24;12.03;;;2.80;;
18125;SDS011;53956;52.442;13.284;2023-02-02T13:40:53;13.70;;;3.33;;
18125;SDS011;53956;52.442;13.284;2023-02-02T13:43:25;6.90;;;2.80;;
18125;SDS011;53956;52.442;13.284;2023-02-02T13:46:02;9.37;;;2.43;;
18125;SDS011;53956;52.442;13.284;2023-02-02T13:48:36;7.77;;;2.80;;
18125;SDS011;53956;52.442;13.284;2023-02-02T13:51:19;4.23;;;2.37;;
18125;SDS011;53956;52.442;13.284;2023-02-02T13:57:21;4.17;;;2.37;;
18125;SDS011;53956;52.442;13.284;2023-02-02T14:00:16;6.80;;;2.60;;
18125;SDS011;53956;52.442;13.284;2023-02-02T14:02:47;6.23;;;2.30;;
18125;SDS011;53956;52.442;13.284;2023-02-02T14:05:20;4.57;;;2.30;;
18125;SDS011;53956;52.442;13.284;2023-02-02T14:07:53;6.40;;;3.40;;
18125;SDS011;53956;52.442;13.284;2023-02-02T14:10:26;6.93;;;3.00;;
18125;SDS011;53956;52.442;13.284;2023-02-02T14:13:03;9.57;;;3.07;;
18125;SDS011;53956;52.442;13.284;2023-02-02T14:15:53;8.77;;;2.60;;
18125;SDS011;53956;52.442;13.284;2023-02-02T14:24:36;8.20;;;2.80;;
18125;SDS011;53956;52.442;13.284;2023-02-02T14:30:17;8.07;;;2.60;;
18125;SDS011;53956;52.442;13.284;2023-02-02T14:32:46;9.67;;;3.03;;
18125;SDS011;53956;52.442;13.284;2023-02-02T14:38:18;6.77;;;2.60;;
18125;SDS011;53956;52.442;13.284;2023-02-02T14:40:58;6.23;;;2.53;;
18125;SDS011;53956;52.442;13.284;2023-02-02T14:43:35;5.03;;;2.20;;
18125;SDS011;53956;52.442;13.284;2023-02-02T14:46:20;5.80;;;2.30;;
18125;SDS011;53956;52.442;13.284;2023-02-02T14:49:04;5.50;;;2.20;;
18125;SDS011;53956;52.442;13.284;2023-02-02T14:51:48;6.13;;;2.03;;
18125;SDS011;53956;52.442;13.284;2023-02-02T14:54:30;4.60;;;2.20;;
18125;SDS011;53956;52.442;13.284;2023-02-02T14:57:02;3.93;;;2.13;;
18125;SDS011;53956;52.442;13.284;2023-02-02T14:59:32;5.20;;;1.93;;
18125;SDS011;53956;52.442;13.284;2023-02-02T15:02:07;3.90;;;2.00;;
18125;SDS011;53956;52.442;13.284;2023-02-02T15:04:42;5.67;;;2.17;;
18125;SDS011;53956;52.442;13.284;2023-02-02T15:13:24;3.53;;;2.50;;
18125;SDS011;53956;52.442;13.284;2023-02-02T15:15:59;4.67;;;2.00;;
18125;SDS011;53956;52.442;13.284;2023-02-02T15:18:31;4.33;;;2.10;;